Time;durP1;ratioP1;P1;durP2;ratioP2;P2;SDS_P1;SDS_P2;PMS_P1;PMS_P2;Temp;Humidity;BMP_temperature;BMP_pressure;BME280_temperature;BME280_humidity;BME280_pressure;Samples;Min_cycle;Max_cycle;Signal;HPM_P1;HPM_P2
2023/03/19 00:01:56;;;;;;;14.13;7.90;;;;;;;8.99;43.13;100156.13;7658739;32;36812;-83
2023/03/19 00:06:21;;;;;;;14.57;8.45;;;;;;;8.82;43.50;100160.78;7658554;32;39383;-83
2023/03/19 00:10:38;;;;;;;12.65;7.60;;;;;;;8.78;43.59;100148.78;7657246;32;40891;-83
2023/03/19 00:14:55;;;;;;;16.62;8.52;;;;;;;8.79;43.55;100140.34;7658368;32;37892;-84
2023/03/19 00:19:11;;;;;;;14.90;8.50;;;;;;;8.60;43.67;100142.53;7658478;32;37825;-84
2023/03/19 00:23:27;;;;;;;12.40;7.53;;;;;;;8.49;43.61;100146.19;7658380;32;39299;-84
2023/03/19 00:27:44;;;;;;;14.35;8.20;;;;;;;8.64;43.28;100140.97;7658125;32;40057;-84
2023/03/19 00:32:01;;;;;;;14.50;8.38;;;;;;;8.75;43.20;100138.41;7658191;32;38463;-83
2023/03/19 00:36:17;;;;;;;16.35;8.30;;;;;;;8.74;43.35;100134.84;7657590;32;37870;-83
2023/03/19 00:40:34;;;;;;;14.50;8.65;;;;;;;8.55;44.15;100128.87;7658201;32;39128;-84
2023/03/19 00:44:51;;;;;;;15.43;9.48;;;;;;;8.31;45.09;100127.41;7657880;32;40863;-84
2023/03/19 00:49:08;;;;;;;16.85;8.65;;;;;;;8.10;45.75;100132.50;7657897;32;37850;-84
2023/03/19 00:53:24;;;;;;;18.02;9.43;;;;;;;7.98;46.25;100127.16;7657991;32;37033;-84
2023/03/19 00:57:41;;;;;;;17.02;9.95;;;;;;;7.83;46.65;100129.63;7656804;32;39563;-84
2023/03/19 01:01:58;;;;;;;18.42;9.43;;;;;;;7.73;47.00;100130.28;7656883;32;40838;-84
2023/03/19 01:06:14;;;;;;;15.57;8.48;;;;;;;7.64;47.42;100131.72;7657750;32;37662;-84
2023/03/19 01:10:33;;;;;;;19.65;10.35;;;;;;;7.54;47.69;100132.37;7657696;32;37249;-83
2023/03/19 01:14:50;;;;;;;17.42;9.95;;;;;;;7.49;47.82;100135.81;7657415;32;39244;-84
2023/03/19 01:19:07;;;;;;;17.10;9.77;;;;;;;7.52;47.65;100129.91;7657443;32;39982;-83
2023/03/19 01:23:24;;;;;;;16.33;9.80;;;;;;;7.47;47.91;100127.09;7657168;32;38643;-84
2023/03/19 01:27:40;;;;;;;16.80;10.00;;;;;;;7.40;47.96;100126.44;7657165;32;37978;-84
2023/03/19 01:31:57;;;;;;;17.90;9.73;;;;;;;7.43;47.77;100119.69;7656871;32;39418;-84
2023/03/19 01:36:13;;;;;;;16.00;9.38;;;;;;;7.40;47.83;100112.88;7656996;32;39929;-83
2023/03/19 01:40:31;;;;;;;22.15;10.35;;;;;;;7.33;47.95;100118.44;7656885;32;37921;-84
2023/03/19 01:44:48;;;;;;;15.73;9.07;;;;;;;7.07;48.56;100119.84;7656686;32;37277;-84
2023/03/19 01:49:06;;;;;;;17.42;10.18;;;;;;;7.18;51.81;100103.78;7655448;32;39897;-83
2023/03/19 01:53:26;;;;;;;20.90;9.75;;;;;;;7.31;47.77;100108.88;7655527;32;39068;-83
2023/03/19 01:57:43;;;;;;;18.73;9.63;;;;;;;7.27;47.36;100108.56;7655422;32;38080;-83
2023/03/19 02:02:14;;;;;;;16.23;9.18;;;;;;;7.32;46.95;100110.53;7656056;32;37084;-83
2023/03/19 02:06:32;;;;;;;16.67;8.82;;;;;;;7.34;46.93;100109.22;7655434;32;39361;-84
2023/03/19 02:10:49;;;;;;;15.77;9.52;;;;;;;7.35;46.86;100107.34;7655148;32;39934;-84
2023/03/19 02:15:06;;;;;;;16.70;9.27;;;;;;;7.37;46.63;100113.34;7658893;32;37819;-84
2023/03/19 02:19:26;;;;;;;16.67;9.30;;;;;;;7.25;46.82;100104.44;7659853;32;37256;-83
2023/03/19 02:23:46;;;;;;;17.10;9.50;;;;;;;7.33;46.69;100104.06;7658233;32;40003;-84
2023/03/19 02:28:02;;;;;;;14.40;9.15;;;;;;;7.30;46.70;100101.84;7659616;32;39733;-84
2023/03/19 02:32:19;;;;;;;16.30;9.93;;;;;;;7.17;47.03;100108.34;7658422;32;38060;-83
2023/03/19 02:36:46;;;;;;;17.00;10.15;;;;;;;7.09;47.37;100098.72;7658422;32;37120;-83
2023/03/19 02:41:05;;;;;;;17.20;9.60;;;;;;;7.08;47.27;100116.03;7658543;32;39782;-83
2023/03/19 02:45:21;;;;;;;18.25;9.95;;;;;;;7.02;47.24;100113.47;7659580;32;40929;-84
2023/03/19 02:49:38;;;;;;;17.30;9.73;;;;;;;7.14;47.13;100111.56;7658254;32;38867;-83
2023/03/19 02:53:54;;;;;;;18.55;9.35;;;;;;;6.89;47.55;100112.69;7659011;32;37703;-83
2023/03/19 02:58:11;;;;;;;16.23;9.20;;;;;;;6.96;47.42;100107.12;7658464;32;39184;-84
2023/03/19 03:02:27;;;;;;;18.90;9.55;;;;;;;6.90;47.42;100116.25;7659031;32;39898;-83
2023/03/19 03:06:44;;;;;;;19.17;9.52;;;;;;;6.87;47.55;100103.16;7659130;32;37987;-84
2023/03/19 03:11:01;;;;;;;15.82;9.18;;;;;;;6.95;47.30;100111.72;7659196;32;37890;-83
2023/03/19 03:15:17;;;;;;;19.37;10.23;;;;;;;6.96;47.20;100116.06;7658969;32;39406;-84
2023/03/19 03:19:34;;;;;;;18.37;9.13;;;;;;;6.77;47.66;100114.59;7657958;32;38176;-83
2023/03/19 03:23:51;;;;;;;18.10;9.63;;;;;;;6.50;48.28;100116.97;7658754;32;36531;-84
2023/03/19 03:28:07;;;;;;;18.20;8.95;;;;;;;6.68;47.71;100116.03;7658715;32;37171;-84
2023/03/19 03:32:24;;;;;;;15.00;9.00;;;;;;;6.76;47.41;100111.06;7658008;32;39325;-84
2023/03/19 03:36:40;;;;;;;17.10;9.63;;;;;;;6.58;47.73;100112.03;7645168;32;39944;-84
2023/03/19 03:40:56;;;;;;;15.25;9.43;;;;;;;6.61;47.73;100116.16;7658796;32;37865;-83
2023/03/19 03:45:13;;;;;;;16.85;9.15;;;;;;;6.43;48.01;100127.12;7658860;32;38277;-83
2023/03/19 03:49:30;;;;;;;16.42;8.80;;;;;;;6.54;47.73;100120.88;7658830;32;39346;-83
2023/03/19 03:53:46;;;;;;;16.12;8.95;;;;;;;6.51;47.68;100121.34;7657219;32;39948;-83
2023/03/19 03:58:03;;;;;;;12.77;7.97;;;;;;;6.28;48.07;100114.87;7658472;32;37957;-84
2023/03/19 04:02:20;;;;;;;19.87;10.20;;;;;;;6.35;48.00;100121.00;7658921;32;36243;-84
2023/03/19 04:06:36;;;;;;;25.75;11.65;;;;;;;6.47;47.53;100121.00;7658575;32;39344;-84
2023/03/19 04:10:53;;;;;;;16.75;9.25;;;;;;;6.45;47.55;100122.28;7658488;32;40850;-83
2023/03/19 04:15:10;;;;;;;16.30;9.55;;;;;;;6.30;47.74;100130.91;7658083;32;38002;-84
2023/03/19 04:19:27;;;;;;;16.60;9.38;;;;;;;6.16;48.01;100122.19;7658271;32;37264;-84
2023/03/19 04:23:43;;;;;;;14.93;8.98;;;;;;;6.02;48.13;100110.75;7632061;32;40086;-83
2023/03/19 04:28:00;;;;;;;18.87;10.73;;;;;;;6.07;48.25;100105.47;7634078;32;40133;-83
2023/03/19 04:32:17;;;;;;;18.00;10.02;;;;;;;6.24;47.71;100104.75;7657399;32;38732;-82
2023/03/19 04:36:33;;;;;;;19.77;9.98;;;;;;;6.22;47.71;100099.56;7656958;32;37176;-83
2023/03/19 04:40:50;;;;;;;17.12;9.40;;;;;;;6.19;47.85;100098.16;7658107;32;40104;-83
2023/03/19 04:45:07;;;;;;;24.35;10.65;;;;;;;5.99;48.31;100103.91;7657620;32;40007;-84
2023/03/19 04:49:24;;;;;;;17.95;9.25;;;;;;;5.91;48.53;100106.94;7657939;32;38749;-84
2023/03/19 04:53:41;;;;;;;18.37;8.45;;;;;;;5.98;48.36;100107.66;7657962;32;37158;-83
2023/03/19 04:57:57;;;;;;;14.18;7.75;;;;;;;5.80;48.64;100116.69;7657760;32;39344;-83
2023/03/19 05:02:14;;;;;;;17.75;8.82;;;;;;;5.90;48.62;100118.81;7656644;32;40945;-83
2023/03/19 05:06:31;;;;;;;12.65;7.62;;;;;;;5.78;48.90;100117.97;7658032;32;36292;-84
2023/03/19 05:10:48;;;;;;;15.70;7.75;;;;;;;5.91;48.51;100117.75;7657655;32;37425;-83
2023/03/19 05:15:04;;;;;;;13.90;8.20;;;;;;;5.98;48.22;100123.91;7657148;32;40132;-82
2023/03/19 05:19:21;;;;;;;12.55;7.45;;;;;;;5.91;48.38;100134.00;7657436;32;39995;-84
2023/03/19 05:23:38;;;;;;;16.40;8.25;;;;;;;5.86;48.60;100135.75;7657362;32;37904;-83
2023/03/19 05:27:54;;;;;;;14.10;7.80;;;;;;;5.91;48.41;100138.59;7657065;32;36886;-84
2023/03/19 05:32:11;;;;;;;17.48;8.52;;;;;;;6.01;48.12;100128.84;7657063;32;40213;-84
2023/03/19 05:36:27;;;;;;;15.20;8.27;;;;;;;6.14;47.88;100145.94;7657067;32;40714;-83
2023/03/19 05:40:44;;;;;;;13.70;8.07;;;;;;;6.14;47.87;100145.94;7656672;32;37907;-83
2023/03/19 05:45:01;;;;;;;12.68;7.28;;;;;;;6.11;47.83;100139.13;7656800;32;36835;-83
2023/03/19 05:49:17;;;;;;;17.90;8.40;;;;;;;6.17;47.93;100140.06;7658669;32;39406;-83
2023/03/19 05:53:33;;;;;;;14.10;7.87;;;;;;;6.20;47.68;100150.44;7659209;32;40067;-84
2023/03/19 05:57:50;;;;;;;15.55;7.82;;;;;;;6.47;47.16;100131.84;7654083;32;37941;-84
2023/03/19 06:02:06;;;;;;;12.13;8.20;;;;;;;6.43;47.21;100135.25;7660051;32;36833;-84
2023/03/19 06:06:23;;;;;;;15.07;8.20;;;;;;;6.59;46.97;100139.97;7660393;32;38901;-84
2023/03/19 06:10:39;;;;;;;15.30;7.90;;;;;;;6.42;47.34;100142.56;7659919;32;40217;-85
2023/03/19 06:14:56;;;;;;;14.27;7.37;;;;;;;6.72;46.71;100153.25;7658900;32;38668;-85
2023/03/19 06:19:12;;;;;;;19.42;7.93;;;;;;;6.84;46.02;100147.00;7659926;32;37147;-83
2023/03/19 06:23:28;;;;;;;18.27;8.60;;;;;;;6.56;46.71;100145.84;7670611;32;39129;-84
2023/03/19 06:27:44;;;;;;;14.95;8.15;;;;;;;7.20;45.46;100147.72;7685876;32;39648;-72
2023/03/19 06:32:01;;;;;;;12.75;7.70;;;;;;;6.94;46.70;100152.63;7686041;32;38858;-74
2023/03/19 06:36:17;;;;;;;15.65;8.85;;;;;;;7.48;46.07;100153.16;7685925;32;37270;-84
2023/03/19 06:40:34;;;;;;;15.43;7.93;;;;;;;7.40;44.85;100158.13;7672602;32;40468;-73
2023/03/19 06:44:50;;;;;;;17.40;8.10;;;;;;;7.82;46.00;100174.12;7659480;32;40004;-83
2023/03/19 06:49:08;;;;;;;14.25;8.18;;;;;;;8.08;43.33;100178.91;7659463;32;38461;-86
2023/03/19 06:53:25;;;;;;;17.00;8.68;;;;;;;8.40;42.73;100185.69;7659194;32;37935;-85
2023/03/19 06:57:41;;;;;;;14.30;8.20;;;;;;;8.46;42.32;100179.28;7659338;32;39296;-86
2023/03/19 07:01:57;;;;;;;15.38;8.02;;;;;;;8.69;41.95;100183.69;7658397;32;40734;-84
2023/03/19 07:06:14;;;;;;;13.43;7.95;;;;;;;8.36;42.32;100184.53;7659001;32;37922;-85
2023/03/19 07:10:30;;;;;;;11.57;7.55;;;;;;;8.22;42.58;100179.41;7658089;32;36731;-85
2023/03/19 07:14:47;;;;;;;14.93;7.45;;;;;;;8.78;41.80;100167.81;7659082;32;39418;-86
2023/03/19 07:19:04;;;;;;;13.88;7.72;;;;;;;8.71;41.40;100159.00;7658922;32;39955;-85
2023/03/19 07:23:21;;;;;;;11.55;7.30;;;;;;;8.76;41.79;100161.78;7658689;32;37930;-85
2023/03/19 07:27:37;;;;;;;15.90;7.70;;;;;;;8.81;41.65;100162.69;7658109;32;37031;-84
2023/03/19 07:31:54;;;;;;;12.77;7.03;;;;;;;9.11;41.28;100174.22;7658618;32;38240;-84
2023/03/19 07:36:11;;;;;;;13.70;8.02;;;;;;;9.35;40.39;100170.16;7658645;32;39636;-84
2023/03/19 07:40:27;;;;;;;12.00;7.30;;;;;;;9.54;39.60;100161.66;7646902;32;37873;-86
2023/03/19 07:44:43;;;;;;;17.08;7.00;;;;;;;9.89;39.20;100160.38;7632611;32;37902;-81
2023/03/19 07:49:00;;;;;;;17.35;7.50;;;;;;;10.00;39.41;100156.66;7632611;32;39465;-82
2023/03/19 07:53:17;;;;;;;13.55;6.30;;;;;;;10.43;38.81;100152.13;7651941;32;39622;-86
2023/03/19 07:57:33;;;;;;;16.12;7.50;;;;;;;10.53;40.15;100146.72;7658562;32;37959;-87
2023/03/19 08:01:49;;;;;;;13.10;7.53;;;;;;;10.62;38.48;100148.97;7659065;32;38180;-87
2023/03/19 08:06:06;;;;;;;10.90;6.47;;;;;;;10.27;38.89;100153.88;7651154;32;249118;-88
2023/03/19 08:10:22;;;;;;;16.90;7.07;;;;;;;10.90;37.92;100155.97;7658406;32;40650;-89
2023/03/19 08:14:39;;;;;;;12.73;6.37;;;;;;;10.68;38.46;100147.94;7658333;32;37991;-86
2023/03/19 08:18:55;;;;;;;13.13;6.85;;;;;;;11.23;37.31;100138.38;7658123;32;37872;-87
2023/03/19 08:23:12;;;;;;;12.60;6.37;;;;;;;11.62;37.24;100142.56;7632179;32;40128;-85
2023/03/19 08:27:30;;;;;;;10.50;5.90;;;;;;;11.93;35.55;100135.25;7632194;32;40757;-88
2023/03/19 08:31:46;;;;;;;12.02;6.40;;;;;;;11.38;35.95;100123.97;7654023;32;37586;-90
2023/03/19 08:36:11;;;;;;;13.62;6.35;;;;;;;12.09;35.74;100132.53;7655474;32;37221;-89
2023/03/19 08:40:27;;;;;;;10.38;5.40;;;;;;;11.67;35.81;100128.09;7632240;32;40200;-90
2023/03/19 08:44:44;;;;;;;11.23;5.65;;;;;;;12.00;36.03;100124.06;7645549;32;40549;-91
2023/03/19 08:49:00;;;;;;;10.30;5.12;;;;;;;12.52;34.66;100119.34;7642799;32;37850;-90
2023/03/19 08:53:17;;;;;;;9.63;5.40;;;;;;;12.95;33.58;100117.88;7650380;32;37162;-89
2023/03/19 08:57:34;;;;;;;12.65;5.07;;;;;;;12.99;33.11;100120.88;7657083;32;40204;-91
2023/03/19 09:01:52;;;;;;;14.70;5.72;;;;;;;12.90;32.27;100114.31;7657539;32;40014;-91
2023/03/19 09:06:11;;;;;;;9.07;4.47;;;;;;;13.36;32.32;100118.81;7657489;32;37973;-90
2023/03/19 09:10:27;;;;;;;14.82;4.62;;;;;;;13.66;31.67;100120.53;7657640;32;37063;-91
2023/03/19 09:14:44;;;;;;;15.98;4.57;;;;;;;13.69;29.87;100119.97;7657611;32;39202;-91
2023/03/19 09:19:01;;;;;;;9.38;4.43;;;;;;;13.64;30.72;100117.25;7657430;32;40534;-91
2023/03/19 09:23:17;;;;;;;11.68;4.57;;;;;;;14.22;30.90;100105.56;7656495;32;37878;-90
2023/03/19 09:27:34;;;;;;;16.60;4.85;;;;;;;14.35;29.10;100098.59;7657323;32;38229;-90
2023/03/19 09:31:50;;;;;;;7.37;4.30;;;;;;;14.05;29.08;100104.06;7657158;32;39927;-89
2023/03/19 09:36:07;;;;;;;10.07;4.78;;;;;;;14.63;28.51;100094.22;7657037;32;40010;-90
2023/03/19 09:40:35;;;;;;;7.00;3.87;;;;;;;14.71;28.77;100092.75;7656860;32;38166;-90
2023/03/19 09:44:52;;;;;;;8.10;4.18;;;;;;;14.89;28.07;100092.00;7644148;32;37064;-89
2023/03/19 09:49:21;;;;;;;6.87;4.10;;;;;;;15.01;28.47;100083.34;7653332;32;39833;-89
2023/03/19 09:53:57;;;;;;;9.63;4.70;;;;;;;15.60;27.67;100078.41;7655556;32;39938;-89
2023/03/19 09:58:19;;;;;;;11.65;6.72;;;;;;;15.77;27.28;100075.94;7629748;32;38796;-90
2023/03/19 10:02:42;;;;;;;9.43;4.18;;;;;;;15.84;26.39;100080.25;7643779;32;37135;-88
2023/03/19 10:07:28;;;;;;;7.82;4.12;;;;;;;16.27;26.09;100071.81;7654427;32;40166;-90
2023/03/19 10:12:26;;;;;;;6.78;3.50;;;;;;;16.44;25.57;100058.28;7642470;32;40817;-89
2023/03/19 10:16:45;;;;;;;8.65;4.10;;;;;;;16.59;24.88;100061.84;7646764;32;38027;-89
2023/03/19 10:21:08;;;;;;;9.40;4.12;;;;;;;16.21;25.83;100062.00;7655818;32;37305;-90
2023/03/19 10:25:28;;;;;;;10.18;4.95;;;;;;;16.62;25.17;100058.50;7656547;32;40236;-90
2023/03/19 10:29:44;;;;;;;8.50;4.50;;;;;;;16.73;26.05;100054.44;7655442;32;39568;-89
2023/03/19 10:34:14;;;;;;;7.57;3.90;;;;;;;16.67;25.08;100052.88;7657635;32;38017;-88
2023/03/19 10:38:32;;;;;;;8.18;4.05;;;;;;;17.30;24.47;100044.97;7646366;32;37079;-89
2023/03/19 10:43:07;;;;;;;8.98;4.40;;;;;;;17.77;23.60;100045.50;7658656;32;39093;-88
2023/03/19 10:47:26;;;;;;;8.77;3.78;;;;;;;18.03;23.88;100034.66;7659788;32;39892;-90
2023/03/19 10:51:45;;;;;;;8.35;4.18;;;;;;;17.92;23.06;100023.09;7649643;32;37671;-90
2023/03/19 10:56:07;;;;;;;7.70;3.78;;;;;;;17.98;23.39;100021.81;7658370;32;37474;-90
2023/03/19 11:00:25;;;;;;;8.85;4.10;;;;;;;18.28;22.72;100005.59;7659861;32;38963;-91
2023/03/19 11:04:42;;;;;;;10.93;4.10;;;;;;;18.94;22.74;99996.53;7659501;32;39916;-90
2023/03/19 11:09:18;;;;;;;13.65;4.30;;;;;;;19.08;22.40;99988.91;7659304;32;37572;-89
2023/03/19 11:13:35;;;;;;;8.52;3.95;;;;;;;19.63;21.47;99981.09;7658768;32;37180;-90
2023/03/19 11:18:15;;;;;;;7.93;4.07;;;;;;;19.70;21.13;99975.88;7659702;32;40270;-90
2023/03/19 11:22:35;;;;;;;8.45;4.03;;;;;;;19.29;21.58;99969.72;7658126;32;40835;-88
2023/03/19 11:26:55;;;;;;;8.82;4.18;;;;;;;19.08;21.74;99969.56;7658299;32;37823;-89
2023/03/19 11:31:26;;;;;;;11.85;4.15;;;;;;;19.76;21.23;99960.72;7658834;32;37984;-88
2023/03/19 11:36:04;;;;;;;9.75;3.80;;;;;;;19.30;21.43;99973.31;7658609;32;40093;-87
2023/03/19 11:40:44;;;;;;;7.37;3.70;;;;;;;19.92;19.99;99968.50;7657623;32;39582;-86
2023/03/19 11:45:30;;;;;;;9.90;4.18;;;;;;;20.38;19.51;99953.00;7658412;32;38430;-88
2023/03/19 11:50:02;;;;;;;8.25;3.83;;;;;;;20.39;20.29;99944.38;7659244;32;37205;-88
2023/03/19 11:54:18;;;;;;;9.45;3.95;;;;;;;20.92;19.97;99941.28;7657842;32;38932;-88
2023/03/19 11:58:40;;;;;;;6.95;3.92;;;;;;;20.94;19.45;99944.56;7658329;32;39708;-88
2023/03/19 12:03:00;;;;;;;8.20;4.15;;;;;;;21.39;18.99;99941.06;7657330;32;37600;-89
2023/03/19 12:07:19;;;;;;;9.38;4.35;;;;;;;21.54;19.57;99932.13;7658783;32;36930;-88
2023/03/19 12:11:45;;;;;;;9.10;4.07;;;;;;;21.56;18.71;99931.78;7658517;32;39445;-87
2023/03/19 12:16:24;;;;;;;7.75;3.80;;;;;;;21.13;19.19;99927.44;7658327;32;39790;-86
2023/03/19 12:20:43;;;;;;;9.90;4.35;;;;;;;21.65;18.67;99915.84;7657675;32;37649;-87
2023/03/19 12:25:23;;;;;;;7.22;3.90;;;;;;;22.22;17.80;99893.94;7658481;32;37310;-87
2023/03/19 12:30:16;;;;;;;9.48;4.32;;;;;;;21.71;18.75;99897.84;7663495;32;40259;-87
2023/03/19 12:34:47;;;;;;;7.28;4.12;;;;;;;22.05;17.72;99881.09;7649907;32;41256;-88
2023/03/19 12:39:17;;;;;;;8.73;4.20;;;;;;;21.98;18.65;99878.91;7659552;32;38618;-86
2023/03/19 12:43:48;;;;;;;8.60;3.85;;;;;;;21.79;17.99;99881.44;7622956;32;37794;-88
2023/03/19 12:48:23;;;;;;;6.75;3.90;;;;;;;21.71;18.92;99872.88;7645079;32;40204;-86
2023/03/19 12:52:41;;;;;;;7.12;3.80;;;;;;;21.66;18.36;99873.09;7645882;32;39914;-87
2023/03/19 12:57:16;;;;;;;9.18;4.50;;;;;;;21.42;17.77;99870.22;7644005;32;38198;-85
2023/03/19 13:01:47;;;;;;;9.90;5.05;;;;;;;20.31;19.10;99869.69;7645919;32;37773;-85
2023/03/19 13:06:07;;;;;;;8.30;4.28;;;;;;;20.99;20.05;99858.44;7658308;32;38069;-89
2023/03/19 13:10:24;;;;;;;9.57;4.80;;;;;;;21.32;20.10;99852.09;7657765;32;40845;-86
2023/03/19 13:15:06;;;;;;;7.75;3.90;;;;;;;21.92;19.46;99849.75;7644386;32;37926;-85
2023/03/19 13:19:39;;;;;;;11.73;4.37;;;;;;;22.59;18.23;99853.03;7657586;32;36821;-84
2023/03/19 13:24:21;;;;;;;7.70;4.37;;;;;;;22.88;18.44;99843.56;7637795;32;40029;-86
2023/03/19 13:28:52;;;;;;;24.12;5.70;;;;;;;23.19;18.37;99830.94;7630690;32;40769;-86
2023/03/19 13:33:21;;;;;;;7.68;4.10;;;;;;;23.56;16.72;99816.81;7630914;32;37666;-86
2023/03/19 13:37:40;;;;;;;8.52;4.87;;;;;;;23.57;17.42;99818.41;7655344;32;37701;-89
2023/03/19 13:42:16;;;;;;;13.38;4.97;;;;;;;23.57;17.42;99818.41;7655922;32;39436;-80
2023/03/19 13:46:37;;;;;;;14.48;4.80;;;;;;;24.05;16.36;99809.25;7655389;32;40869;-89
2023/03/19 13:51:11;;;;;;;8.23;4.50;;;;;;;23.60;16.83;99798.22;7655506;32;38617;-89
2023/03/19 13:55:31;;;;;;;10.82;4.20;;;;;;;22.26;17.76;99794.87;7656733;32;37306;-87
2023/03/19 13:59:49;;;;;;;11.98;4.30;;;;;;;23.18;17.35;99795.16;7656795;32;39395;-88
2023/03/19 14:04:21;;;;;;;8.32;3.87;;;;;;;21.81;18.31;99793.09;7656525;32;39959;-88
2023/03/19 14:08:50;;;;;;;8.40;3.95;;;;;;;22.30;17.75;99796.66;7657149;32;38051;-88
2023/03/19 14:13:16;;;;;;;7.90;4.07;;;;;;;21.65;18.40;99788.25;7658950;32;37048;-88
2023/03/19 14:17:42;;;;;;;8.52;3.58;;;;;;;21.19;18.72;99791.03;7659443;32;39455;-88
2023/03/19 14:21:58;;;;;;;6.70;3.92;;;;;;;21.14;18.66;99787.69;7659643;32;39822;-88
2023/03/19 14:26:18;;;;;;;7.28;3.78;;;;;;;20.75;19.19;99789.88;7659809;32;37992;-88
2023/03/19 14:30:43;;;;;;;7.72;3.87;;;;;;;20.69;19.00;99799.53;7658493;32;36693;-87
2023/03/19 14:35:04;;;;;;;8.57;3.83;;;;;;;20.50;19.32;99784.19;7658558;32;39501;-88
2023/03/19 14:39:23;;;;;;;10.85;3.80;;;;;;;20.51;19.37;99791.38;7659515;32;41031;-87
2023/03/19 14:43:54;;;;;;;7.78;2.85;;;;;;;20.18;19.08;99791.28;7658040;32;36825;-87
2023/03/19 14:48:41;;;;;;;9.88;4.03;;;;;;;20.03;19.71;99787.97;7659515;32;37914;-87
2023/03/19 14:53:18;;;;;;;17.20;4.32;;;;;;;20.43;18.92;99781.16;7659550;32;39339;-86
2023/03/19 14:57:35;;;;;;;5.75;2.90;;;;;;;20.73;18.84;99789.41;7659155;32;40918;-87
2023/03/19 15:01:54;;;;;;;8.15;3.20;;;;;;;21.15;18.25;99775.47;7658189;32;38653;-86
2023/03/19 15:06:13;;;;;;;18.08;7.82;;;;;;;21.37;18.44;99777.00;7658359;32;37036;-87
2023/03/19 15:10:53;;;;;;;11.00;3.70;;;;;;;21.17;18.23;99776.72;7658363;32;40560;-86
2023/03/19 15:15:32;;;;;;;7.70;3.80;;;;;;;21.35;18.07;99776.50;7658030;32;40021;-86
2023/03/19 15:19:49;;;;;;;10.43;3.85;;;;;;;21.32;18.34;99780.00;7658507;32;38745;-86
2023/03/19 15:24:13;;;;;;;11.23;5.07;;;;;;;21.09;18.49;99783.16;7659444;32;37326;-85
2023/03/19 15:28:34;;;;;;;8.48;4.12;;;;;;;20.73;19.39;99786.63;7659152;32;39052;-86
2023/03/19 15:32:53;;;;;;;20.33;9.38;;;;;;;19.77;20.56;99796.41;7658756;32;39941;-84
2023/03/19 15:37:29;;;;;;;10.55;5.82;;;;;;;19.50;21.37;99797.66;7658914;32;37863;-88
2023/03/19 15:41:48;;;;;;;11.63;5.82;;;;;;;19.54;21.49;99792.25;7658621;32;37160;-88
2023/03/19 15:46:06;;;;;;;10.38;5.20;;;;;;;19.30;22.17;99788.94;7657728;32;39185;-87
2023/03/19 15:50:25;;;;;;;13.48;5.75;;;;;;;19.04;22.39;99791.78;7657651;32;39866;-87
2023/03/19 15:54:42;;;;;;;14.82;7.00;;;;;;;18.94;22.62;99803.97;7657614;32;39137;-87
2023/03/19 15:58:59;;;;;;;14.18;7.80;;;;;;;18.63;23.58;99808.88;7658673;32;37476;-87
2023/03/19 16:03:32;;;;;;;12.98;6.62;;;;;;;18.44;23.73;99812.75;7658728;32;40101;-88
2023/03/19 16:07:56;;;;;;;13.82;6.65;;;;;;;18.63;23.76;99826.25;7657653;32;39969;-88
2023/03/19 16:12:36;;;;;;;19.17;10.85;;;;;;;18.20;24.33;99813.22;7657301;32;37946;-89
2023/03/19 16:17:09;;;;;;;11.60;6.03;;;;;;;18.24;24.17;99819.72;7653929;32;37327;-89
2023/03/19 16:21:41;;;;;;;11.60;6.72;;;;;;;18.25;24.74;99809.47;7658623;32;39579;-89
2023/03/19 16:26:02;;;;;;;8.70;4.93;;;;;;;17.95;25.14;99812.03;7658388;32;40156;-89
2023/03/19 16:30:24;;;;;;;15.65;6.45;;;;;;;17.73;25.36;99812.91;7657951;32;38718;-88
2023/03/19 16:34:52;;;;;;;9.90;5.20;;;;;;;17.53;25.44;99815.09;7658332;32;37152;-88
2023/03/19 16:39:23;;;;;;;9.63;5.43;;;;;;;17.36;25.59;99817.78;7658091;32;39382;-88
2023/03/19 16:43:44;;;;;;;9.20;4.87;;;;;;;17.20;26.35;99825.66;7658609;32;37897;-88
2023/03/19 16:48:04;;;;;;;12.25;5.20;;;;;;;17.01;26.21;99828.59;7656786;32;38029;-88
2023/03/19 16:52:23;;;;;;;12.32;5.00;;;;;;;16.82;26.46;99840.59;7657728;32;37492;-87
2023/03/19 16:56:41;;;;;;;14.32;6.20;;;;;;;16.79;26.82;99843.16;7657719;32;39365;-88
2023/03/19 17:00:58;;;;;;;23.27;8.82;;;;;;;16.84;26.88;99846.63;7657798;32;40990;-87
2023/03/19 17:05:15;;;;;;;17.77;7.45;;;;;;;16.76;27.05;99861.09;7656514;32;37648;-84
2023/03/19 17:09:32;;;;;;;19.42;9.18;;;;;;;16.55;27.65;99865.44;7649760;32;37037;-84
2023/03/19 17:13:48;;;;;;;20.37;9.20;;;;;;;16.44;27.73;99857.41;7657716;32;40131;-83
2023/03/19 17:18:19;;;;;;;11.80;5.10;;;;;;;16.39;28.09;99857.53;7657470;32;40621;-86
2023/03/19 17:22:35;;;;;;;9.55;5.18;;;;;;;16.02;28.77;99862.16;7644220;32;37908;-84
2023/03/19 17:26:52;;;;;;;12.27;5.03;;;;;;;15.87;29.20;99868.00;7657163;32;37359;-84
2023/03/19 17:31:26;;;;;;;8.98;4.82;;;;;;;15.86;29.37;99861.66;7657139;32;39504;-83
2023/03/19 17:35:42;;;;;;;9.07;5.10;;;;;;;15.86;29.18;99863.59;7645052;32;40591;-84
2023/03/19 17:39:58;;;;;;;13.68;5.47;;;;;;;15.61;29.67;99864.87;7656787;32;38083;-83
2023/03/19 17:44:15;;;;;;;12.30;5.60;;;;;;;15.28;30.34;99863.00;7650522;32;37210;-84
2023/03/19 17:48:31;;;;;;;14.32;6.20;;;;;;;15.38;30.17;99865.56;7659798;32;39338;-85
2023/03/19 17:52:48;;;;;;;12.37;6.28;;;;;;;15.28;30.13;99868.47;7660097;32;40744;-84
2023/03/19 17:57:04;;;;;;;11.70;5.95;;;;;;;15.24;30.22;99861.13;7658820;32;37896;-83
2023/03/19 18:01:24;;;;;;;12.37;5.47;;;;;;;15.39;29.88;99863.63;7660031;32;37260;-85
2023/03/19 18:05:41;;;;;;;11.00;5.28;;;;;;;15.25;30.08;99863.59;7659582;32;39421;-84
2023/03/19 18:09:57;;;;;;;10.15;5.10;;;;;;;15.38;29.55;99868.31;7642104;32;39885;-84
2023/03/19 18:14:14;;;;;;;19.48;5.10;;;;;;;15.36;29.80;99865.03;7632832;32;37982;-83
2023/03/19 18:18:31;;;;;;;7.87;4.47;;;;;;;15.22;30.13;99855.94;7640128;32;37335;-83
2023/03/19 18:22:48;;;;;;;10.43;4.78;;;;;;;15.11;30.28;99857.22;7659105;32;39385;-83
2023/03/19 18:27:04;;;;;;;9.50;4.55;;;;;;;15.39;29.63;99856.19;7659104;32;39925;-84
2023/03/19 18:31:24;;;;;;;8.77;4.70;;;;;;;15.10;29.80;99856.41;7658522;32;38091;-82
2023/03/19 18:35:43;;;;;;;9.00;5.00;;;;;;;15.13;30.21;99855.00;7659157;32;37065;-84
2023/03/19 18:39:59;;;;;;;11.07;6.28;;;;;;;15.06;30.37;99865.56;7657938;32;38342;-84
2023/03/19 18:44:17;;;;;;;13.40;5.62;;;;;;;14.73;30.05;99879.22;7659151;32;40031;-83
2023/03/19 18:48:34;;;;;;;14.07;5.57;;;;;;;14.88;29.88;99870.78;7657571;32;37804;-83
2023/03/19 18:52:52;;;;;;;10.50;5.35;;;;;;;14.95;29.92;99868.47;7658604;32;36846;-84
2023/03/19 18:57:11;;;;;;;10.90;5.90;;;;;;;14.79;30.15;99872.56;7657847;32;39848;-84
2023/03/19 19:01:27;;;;;;;10.90;5.72;;;;;;;14.84;30.33;99881.53;7644939;32;40906;-84
2023/03/19 19:05:44;;;;;;;12.40;5.60;;;;;;;14.80;30.77;99877.75;7657951;32;37613;-84
2023/03/19 19:10:04;;;;;;;12.30;5.30;;;;;;;14.70;31.02;99879.84;7657346;32;37945;-82
2023/03/19 19:14:22;;;;;;;10.30;5.30;;;;;;;14.67;31.02;99874.94;7656736;32;39071;-83
2023/03/19 19:18:39;;;;;;;10.73;5.75;;;;;;;14.77;30.89;99881.09;7658088;32;40097;-83
2023/03/19 19:22:56;;;;;;;12.95;5.68;;;;;;;14.80;31.02;99879.69;7656887;32;38679;-84
2023/03/19 19:27:21;;;;;;;12.13;5.90;;;;;;;14.72;31.15;99885.84;7658193;32;36806;-84
2023/03/19 19:31:37;;;;;;;10.75;5.80;;;;;;;14.63;31.80;99883.78;7656503;32;40060;-81
2023/03/19 19:35:54;;;;;;;10.10;5.70;;;;;;;14.64;31.59;99887.31;7658434;32;39978;-84
2023/03/19 19:40:13;;;;;;;12.18;5.07;;;;;;;14.60;31.16;99889.84;7657954;32;37949;-83
2023/03/19 19:44:30;;;;;;;12.20;5.87;;;;;;;14.67;30.97;99885.94;7658248;32;37395;-83
2023/03/19 19:48:46;;;;;;;13.27;5.60;;;;;;;14.57;30.99;99893.16;7656745;32;40019;-81
2023/03/19 19:53:02;;;;;;;9.35;4.93;;;;;;;14.61;30.75;99894.22;7656371;32;39533;-84
2023/03/19 19:57:21;;;;;;;10.23;5.45;;;;;;;14.56;30.65;99898.94;7658468;32;37856;-86
2023/03/19 20:01:38;;;;;;;10.00;5.90;;;;;;;14.50;31.38;99889.94;7644343;32;36148;-84
2023/03/19 20:05:54;;;;;;;10.88;5.45;;;;;;;14.43;31.22;99897.72;7657633;32;40169;-83
2023/03/19 20:10:11;;;;;;;9.48;4.78;;;;;;;14.47;31.05;99898.78;7657751;32;40542;-81
2023/03/19 20:14:28;;;;;;;8.57;4.80;;;;;;;14.26;31.15;99895.47;7657820;32;37949;-83